Latest Coastal Weather Observations for Broome Port

IDW60701

Issued at 9:43 pm WST Monday 4 May 2026 (issued every 10 minutes, with the page automatically refreshed every 10 minutes)

About coastal observations | Map of coastal stations | Coastal observations for WA | Marine services | Other Formats
Station Details ID: 003102 Name: BROOME WHARF NTC AWS Lat: -18.00 Lon: 122.22 Height: 0.0 m
Data from the previous 72 hours. | See also: Recent months for locations in Western Australia
Date/Time
WST
Wind Sea
Height
m
Swell Vis
km
Cloud Weather Temp
°C
Press
MSL
hPa
Rain since
9am
mm
Dir  Spd
kts
Gust
kts
Height
m
Period
s
Dir
04/09:30pm SE 19 23 - - - - - - - 28.3 1013.6 -
04/09:00pm SE 16 19 - - - - - - - 28.8 1013.7 -
04/08:30pm SE 14 17 - - - - - - - 29.1 1013.6 -
04/08:00pm SE 13 16 - - - - - - - 29.4 1013.3 -
04/07:30pm SE 13 15 - - - - - - - 29.6 1013.1 -
04/07:00pm SSE 13 15 - - - - - - - 29.8 1012.7 -
04/06:30pm SSE 11 15 - - - - - - - 30.2 1012.4 -
04/06:00pm SE 13 15 - - - - - - - 30.6 1012.0 -
04/05:30pm SE 13 15 - - - - - - - 30.9 1011.7 -
04/05:00pm SE 10 12 - - - - - - - 30.4 1011.4 -
04/04:30pm SE 11 13 - - - - - - - 30.5 1011.2 -
04/04:00pm SE 10 12 - - - - - - - 30.8 1011.2 -
04/03:30pm SE 9 12 - - - - - - - 30.8 1011.2 -
04/03:00pm SE 10 12 - - - - - - - 30.6 1011.2 -
04/02:30pm SE 10 12 - - - - - - - 30.6 1011.4 -
04/02:00pm SE 11 14 - - - - - - - 30.9 1011.5 -
04/01:30pm ESE 9 12 - - - - - - - 30.6 1011.8 -
04/01:00pm ESE 10 13 - - - - - - - 30.1 1012.1 -
04/12:30pm ESE 9 13 - - - - - - - 30.3 1012.7 -
04/12:00pm ESE 10 15 - - - - - - - 29.8 1013.3 -
04/11:30am ESE 11 15 - - - - - - - 29.4 1013.7 -
04/11:00am ESE 12 17 - - - - - - - 28.8 1014.1 -
04/10:30am ESE 13 18 - - - - - - - 28.2 1014.6 -
04/10:00am ESE 12 18 - - - - - - - 27.7 1014.9 -
04/09:30am ESE 15 19 - - - - - - - 26.7 1015.0 -
04/09:00am ESE 14 19 - - - - - - - 25.8 1015.0 -
04/08:30am E 13 17 - - - - - - - 24.8 1014.9 -
04/08:00am ESE 14 19 - - - - - - - 24.2 1014.8 -
04/07:30am ESE 14 19 - - - - - - - 24.2 1014.5 -
04/07:00am ESE 15 20 - - - - - - - 24.2 1014.3 -
04/06:30am ESE 15 21 - - - - - - - 24.4 1013.9 -
04/06:00am ESE 15 19 - - - - - - - 24.8 1013.5 -
04/05:30am ESE 15 20 - - - - - - - 25.1 1013.1 -
04/05:00am ESE 14 18 - - - - - - - 25.4 1012.8 -
04/04:30am ESE 14 21 - - - - - - - 25.8 1012.6 -
04/04:00am ESE 13 17 - - - - - - - 26.0 1012.3 -
04/03:30am ESE 13 18 - - - - - - - 26.3 1012.4 -
04/03:00am ESE 15 20 - - - - - - - 26.5 1012.3 -
04/02:30am SE 17 23 - - - - - - - 26.9 1012.1 -
04/02:00am SE 20 26 - - - - - - - 27.3 1012.0 -
04/01:30am SE 20 26 - - - - - - - 27.5 1012.0 -
04/01:00am SE 22 26 - - - - - - - 27.8 1012.1 -
04/12:30am SE 21 24 - - - - - - - 28.2 1012.2 -
04/12:00am SE 20 25 - - - - - - - 28.5 1012.3 -
 
Date/Time
WST
Wind Sea
Height
m
Swell Vis
km
Cloud Weather Temp
°C
Press
MSL
hPa
Rain since
9am
mm
Dir  Spd
kts
Gust
kts
Height
m
Period
s
Dir
03/11:30pm SE 20 25 - - - - - - - 28.8 1012.2 -
03/11:00pm SE 20 24 - - - - - - - 29.2 1012.3 -
03/10:30pm SE 19 25 - - - - - - - 29.7 1012.3 -
03/10:00pm SE 16 20 - - - - - - - 29.6 1012.4 -
03/09:30pm SE 14 16 - - - - - - - 29.6 1012.5 -
03/09:00pm SE 9 11 - - - - - - - 29.5 1012.6 -
03/08:30pm SE 8 9 - - - - - - - 30.0 1012.4 -
03/08:00pm SE 9 10 - - - - - - - 30.6 1012.2 -
03/07:30pm SE 7 9 - - - - - - - 30.8 1011.8 -
03/07:00pm SSE 3 4 - - - - - - - 30.4 1011.5 -
03/06:30pm NNW 2 3 - - - - - - - 28.9 1011.0 -
03/06:00pm WNW 2 4 - - - - - - - 28.7 1010.6 -
03/05:30pm WSW 4 6 - - - - - - - 29.3 1010.3 -
03/05:00pm SW 6 9 - - - - - - - 29.7 1009.9 -
03/04:30pm SW 7 9 - - - - - - - 30.1 1009.7 -
03/04:00pm WSW 7 10 - - - - - - - 30.2 1009.6 -
03/03:30pm WSW 6 8 - - - - - - - 30.7 1009.6 -
03/03:00pm SW 5 7 - - - - - - - 31.5 1009.7 -
03/02:30pm SW 4 6 - - - - - - - 31.3 1009.8 -
03/02:00pm SW 4 5 - - - - - - - 31.4 1010.2 -
03/01:30pm SW 3 6 - - - - - - - 30.8 1010.6 -
03/01:00pm SSW 4 6 - - - - - - - 30.4 1010.8 -
03/12:30pm SSE 4 5 - - - - - - - 29.9 1011.2 -
03/12:00pm SE 5 7 - - - - - - - 29.5 1011.7 -
03/11:30am ESE 6 8 - - - - - - - 29.3 1012.1 -
03/11:00am ESE 9 11 - - - - - - - 28.6 1012.6 -
03/10:30am ESE 9 12 - - - - - - - 28.1 1013.0 -
03/10:00am ESE 11 14 - - - - - - - 27.4 1013.5 -
03/09:30am ESE 11 14 - - - - - - - 26.6 1013.7 -
03/09:00am ESE 12 17 - - - - - - - 26.1 1013.8 -
03/08:30am ESE 14 17 - - - - - - - 25.4 1013.7 -
03/08:00am ESE 13 19 - - - - - - - 25.1 1013.5 -
03/07:30am ESE 14 22 - - - - - - - 25.0 1013.1 -
03/07:00am ESE 14 21 - - - - - - - 25.0 1012.6 -
03/06:30am ESE 14 21 - - - - - - - 25.1 1012.2 -
03/06:00am SE 15 20 - - - - - - - 25.3 1011.8 -
03/05:30am SE 16 21 - - - - - - - 25.7 1011.5 -
03/05:00am SE 18 23 - - - - - - - 25.8 1011.2 -
03/04:30am SE 19 24 - - - - - - - 26.1 1010.9 -
03/04:00am SE 19 23 - - - - - - - 26.1 1010.8 -
03/03:30am SE 17 21 - - - - - - - 26.8 1010.8 -
03/03:00am SE 17 21 - - - - - - - 26.9 1010.8 -
03/02:30am SE 17 21 - - - - - - - 27.4 1010.7 -
03/02:00am SE 15 18 - - - - - - - 27.7 1010.6 -
03/01:30am SSE 15 18 - - - - - - - 28.0 1010.6 -
03/01:00am SSE 17 21 - - - - - - - 28.6 1010.6 -
03/12:30am SSE 15 20 - - - - - - - 29.0 1010.7 -
03/12:00am SW 9 16 - - - - - - - 28.9 1010.8 -
 
Date/Time
WST
Wind Sea
Height
m
Swell Vis
km
Cloud Weather Temp
°C
Press
MSL
hPa
Rain since
9am
mm
Dir  Spd
kts
Gust
kts
Height
m
Period
s
Dir
02/11:30pm WSW 6 9 - - - - - - - 29.2 1011.1 -
02/11:00pm W 6 9 - - - - - - - 29.3 1011.3 -
02/10:30pm W 6 9 - - - - - - - 29.2 1011.4 -
02/10:00pm W 7 9 - - - - - - - 29.2 1011.4 -
02/09:30pm W 7 9 - - - - - - - 29.2 1011.4 -
02/09:00pm W 7 9 - - - - - - - 29.2 1011.5 -
02/08:30pm W 7 9 - - - - - - - 29.2 1011.4 -
02/08:00pm W 8 10 - - - - - - - 29.3 1010.9 -
02/07:30pm W 8 11 - - - - - - - 29.4 1010.5 -
02/07:00pm W 8 12 - - - - - - - 29.4 1010.0 -
02/06:30pm W 9 11 - - - - - - - 29.3 1009.7 -
02/06:00pm WSW 8 13 - - - - - - - 29.4 1009.3 -
02/05:30pm WSW 7 15 - - - - - - - 29.3 1009.0 -
02/05:00pm WSW 9 13 - - - - - - - 29.5 1008.7 -
02/04:30pm WSW 9 15 - - - - - - - 29.9 1008.5 -
02/04:00pm WSW 9 15 - - - - - - - 29.9 1008.2 -
02/03:30pm WSW 9 14 - - - - - - - 30.2 1008.2 -
02/03:00pm WSW 9 13 - - - - - - - 30.3 1008.1 -
02/02:30pm W 10 13 - - - - - - - 30.2 1008.4 -
02/02:00pm WSW 9 13 - - - - - - - 29.8 1008.5 -
02/01:30pm WSW 10 13 - - - - - - - 29.7 1009.0 -
02/01:00pm WSW 9 12 - - - - - - - 29.8 1009.3 -
02/12:30pm WSW 6 10 - - - - - - - 30.6 1009.7 -
02/12:00pm SW 6 9 - - - - - - - 30.0 1010.1 -
02/11:30am SW 7 9 - - - - - - - 29.5 1010.6 -
02/11:00am SSW 7 9 - - - - - - - 29.1 1011.1 -
02/10:30am SSW 8 10 - - - - - - - 28.9 1011.5 -
02/10:00am S 7 9 - - - - - - - 28.3 1011.9 -
02/09:30am S 8 11 - - - - - - - 27.7 1011.9 -
02/09:00am S 7 9 - - - - - - - 27.2 1011.9 -
02/08:30am SSE 7 9 - - - - - - - 26.9 1011.8 -
02/08:00am SSE 1 4 - - - - - - - 27.1 1011.7 -
02/07:30am SSE 6 9 - - - - - - - 26.1 1011.5 -
02/07:00am SSE 7 9 - - - - - - - 26.6 1011.0 -
02/06:30am SSW 3 6 - - - - - - - 28.5 1010.7 -
02/06:00am SW 3 4 - - - - - - - 28.4 1010.4 -
02/05:30am WSW 1 2 - - - - - - - 27.3 1010.1 -
02/05:00am NNW 1 2 - - - - - - - 27.2 1009.8 -
02/04:30am NW 1 2 - - - - - - - 27.2 1009.6 -
02/04:00am CALM 0 1 - - - - - - - 27.2 1009.7 -
02/03:30am NNW 2 3 - - - - - - - 27.3 1009.8 -
02/03:00am WNW 4 5 - - - - - - - 27.8 1009.8 -
02/02:30am W 5 8 - - - - - - - 27.9 1010.0 -
02/02:00am W 7 9 - - - - - - - 28.0 1010.3 -
02/01:30am W 6 8 - - - - - - - 28.0 1010.6 -
02/01:00am W 5 7 - - - - - - - 27.9 1010.9 -
02/12:30am W 6 7 - - - - - - - 27.9 1011.0 -
02/12:00am W 4 7 - - - - - - - 27.7 1011.0 -
 
Date/Time
WST
Wind Sea
Height
m
Swell Vis
km
Cloud Weather Temp
°C
Press
MSL
hPa
Rain since
9am
mm
Dir  Spd
kts
Gust
kts
Height
m
Period
s
Dir
01/11:30pm WNW 4 5 - - - - - - - 27.7 1011.2 -
01/11:00pm WNW 5 7 - - - - - - - 27.9 1011.4 -
01/10:30pm WNW 5 6 - - - - - - - 27.8 1011.5 -
01/10:00pm WNW 5 6 - - - - - - - 28.0 1011.6 -

Other formats

Comma delimited format used in spreadsheet applications
http://www.bom.gov.au/fwo/IDW60701/IDW60701.95202.axf

JavaScript Object Notation format (JSON) in row-major order
http://www.bom.gov.au/fwo/IDW60701/IDW60701.95202.json

Data quality

Most of these data are generated automatically and are frequently updated. Quality checks on data are not normally performed. It is possible for incorrect values to appear. Refer to information at About Latest Weather Observations and please check the disclaimer before using these data.